Terminal Aerodrome Forecast
Issued by NWS

Home | Current Version | Previous Version | Text Only | Print | Product List | Glossary Off
Versions: 1 2 3 4 5 6 7 8 9 10 11 12 13

000
FTUS43 KICT 141100
TAFCNU
TAF
KCNU 141132Z 1412/1512 34020G28KT P6SM OVC014
     FM141300 35024G33KT 5SM -SN OVC012
      TEMPO 1413/1415 2SM -SN OVC009
     FM141500 36023G33KT 5SM -RASN BKN009 OVC014
     FM141700 34020G30KT 5SM -RA OVC012
     FM141900 34018G25KT P6SM OVC040
     FM150100 VRB03KT P6SM SKC=

USA.gov is the U.S. government's official web portal to all federal, state and local government web resources and services.